Time;durP1;ratioP1;P1;durP2;ratioP2;P2;SDS_P1;SDS_P2;PMS_P1;PMS_P2;Temp;Humidity;BMP_temperature;BMP_pressure;BME280_temperature;BME280_humidity;BME280_pressure;Samples;Min_cycle;Max_cycle;Signal;HPM_P1;HPM_P2
2023/09/10 00:00:32;;;;;;;5.47;2.15;;;;;;;12.92;64.28;96751.16;5113406;28;20497;-71
2023/09/10 00:03:00;;;;;;;4.72;2.30;;;;;;;12.90;64.31;96758.22;5113311;28;20413;-63
2023/09/10 00:05:27;;;;;;;3.45;2.03;;;;;;;12.85;64.00;96765.44;5113483;28;20092;-68
2023/09/10 00:07:55;;;;;;;5.68;2.28;;;;;;;12.84;64.41;96759.38;5113208;28;20081;-66
2023/09/10 00:10:22;;;;;;;4.00;1.80;;;;;;;12.80;64.62;96767.44;5113515;28;20059;-67
2023/09/10 00:12:50;;;;;;;3.72;2.03;;;;;;;12.77;64.29;96768.44;5113665;28;20047;-65
2023/09/10 00:15:18;;;;;;;4.65;2.20;;;;;;;12.75;64.39;96773.75;5113397;28;20048;-65
2023/09/10 00:17:45;;;;;;;6.05;1.65;;;;;;;12.68;64.48;96764.44;5113465;28;20046;-66
2023/09/10 00:20:13;;;;;;;10.45;2.35;;;;;;;12.68;64.44;96760.94;5113274;28;20051;-73
2023/09/10 00:22:42;;;;;;;4.30;2.13;;;;;;;12.64;64.49;96766.31;5113287;28;20055;-68
2023/09/10 00:25:10;;;;;;;4.30;1.90;;;;;;;12.57;64.55;96759.63;5113218;28;20047;-67
2023/09/10 00:27:37;;;;;;;5.55;2.50;;;;;;;12.55;63.99;96752.75;5113179;28;20124;-68
2023/09/10 00:30:07;;;;;;;4.57;2.20;;;;;;;12.59;64.06;96754.31;5113250;28;20508;-72
2023/09/10 00:32:34;;;;;;;3.55;2.17;;;;;;;12.54;64.08;96753.66;5113462;28;20458;-69
2023/09/10 00:35:03;;;;;;;8.32;2.13;;;;;;;12.39;64.01;96756.00;5114228;28;20477;-69
2023/09/10 00:37:30;;;;;;;5.78;2.30;;;;;;;12.32;64.19;96750.19;5117130;28;20071;-70
2023/09/10 00:39:57;;;;;;;5.68;1.77;;;;;;;12.36;63.95;96753.50;5116980;28;20055;-72
2023/09/10 00:42:24;;;;;;;3.92;2.08;;;;;;;12.37;64.38;96745.56;5117107;28;20092;-66
2023/09/10 00:44:51;;;;;;;2.28;1.98;;;;;;;12.29;64.86;96750.31;5117094;28;20081;-67
2023/09/10 00:47:21;;;;;;;4.75;2.38;;;;;;;12.26;64.99;96753.88;5117029;28;20043;-71
2023/09/10 00:49:49;;;;;;;6.55;2.33;;;;;;;12.28;64.54;96751.19;5116922;28;20047;-64
2023/09/10 00:52:17;;;;;;;3.55;2.20;;;;;;;12.32;64.36;96750.19;5116848;28;20130;-66
2023/09/10 00:54:45;;;;;;;4.55;2.10;;;;;;;12.33;64.44;96741.38;5116831;28;20122;-71
2023/09/10 00:57:12;;;;;;;6.28;2.15;;;;;;;12.38;64.72;96747.28;5116693;28;20130;-66
2023/09/10 00:59:40;;;;;;;6.13;2.15;;;;;;;12.41;64.01;96745.44;5116606;28;20400;-68
2023/09/10 01:02:07;;;;;;;4.70;1.98;;;;;;;12.37;64.25;96755.22;5116609;28;20101;-62
2023/09/10 01:04:36;;;;;;;3.58;2.30;;;;;;;12.31;64.46;96752.88;5116634;27;20052;-68
2023/09/10 01:07:04;;;;;;;5.00;2.45;;;;;;;12.29;64.57;96755.56;5116519;28;20130;-62
2023/09/10 01:09:31;;;;;;;3.28;1.90;;;;;;;12.26;64.72;96753.06;5116406;28;20146;-64
2023/09/10 01:12:06;;;;;;;5.97;2.08;;;;;;;12.24;64.59;96752.25;5116419;28;20044;-68
2023/09/10 01:14:37;;;;;;;6.07;2.65;;;;;;;12.22;64.93;96749.69;5116375;28;20054;-68
2023/09/10 01:17:11;;;;;;;3.85;2.00;;;;;;;12.23;64.76;96745.31;5116381;28;20040;-65
2023/09/10 01:19:50;;;;;;;4.10;1.77;;;;;;;12.19;65.11;96746.34;5116312;28;20070;-65
2023/09/10 01:22:26;;;;;;;3.60;2.05;;;;;;;12.18;65.17;96748.13;5116298;28;20105;-68
2023/09/10 01:24:56;;;;;;;6.93;2.00;;;;;;;12.19;64.92;96747.19;5116326;28;20067;-62
2023/09/10 01:27:23;;;;;;;3.45;2.10;;;;;;;12.19;65.31;96747.19;5116550;28;20071;-68
2023/09/10 01:29:50;;;;;;;5.18;2.08;;;;;;;12.17;65.03;96741.19;5116070;28;20138;-68
2023/09/10 01:32:24;;;;;;;3.83;2.20;;;;;;;12.09;65.29;96733.63;5116413;28;20075;-69
2023/09/10 01:34:59;;;;;;;2.67;2.28;;;;;;;12.10;65.28;96743.19;5116297;28;20043;-71
2023/09/10 01:37:34;;;;;;;2.97;1.85;;;;;;;12.15;65.75;96743.00;5116078;28;20055;-66
2023/09/10 01:40:06;;;;;;;4.82;2.20;;;;;;;12.16;66.04;96744.69;5116071;28;20055;-66
2023/09/10 01:42:35;;;;;;;3.92;2.38;;;;;;;12.19;66.59;96741.13;5116031;28;20051;-72
2023/09/10 01:45:04;;;;;;;3.60;2.15;;;;;;;12.21;66.76;96739.25;5115897;28;20048;-64
2023/09/10 01:47:31;;;;;;;8.25;2.47;;;;;;;12.23;66.61;96738.31;5115592;28;20055;-65
2023/09/10 01:49:58;;;;;;;7.07;1.77;;;;;;;12.33;67.01;96746.63;5115741;28;20093;-69
2023/09/10 01:52:25;;;;;;;2.40;2.20;;;;;;;12.43;67.44;96736.59;5115693;28;20481;-68
2023/09/10 01:54:52;;;;;;;5.55;2.05;;;;;;;12.48;66.94;96742.50;5115767;28;20044;-67
2023/09/10 01:57:21;;;;;;;2.33;1.83;;;;;;;12.53;66.74;96739.69;5115726;28;20058;-66
2023/09/10 01:59:48;;;;;;;5.43;2.28;;;;;;;12.63;66.60;96740.13;5115584;28;20090;-69
2023/09/10 02:02:15;;;;;;;3.03;2.10;;;;;;;12.72;66.38;96738.88;5115482;28;20583;-67
2023/09/10 02:04:42;;;;;;;4.13;2.58;;;;;;;12.75;66.35;96742.25;5115496;28;20485;-69
2023/09/10 02:07:09;;;;;;;4.97;2.28;;;;;;;12.84;67.07;96741.00;5115387;28;20082;-70
2023/09/10 02:09:36;;;;;;;3.05;2.20;;;;;;;12.93;66.84;96749.34;5115322;28;20055;-67
2023/09/10 02:12:03;;;;;;;6.95;3.08;;;;;;;12.98;66.71;96740.34;5115349;28;20104;-64
2023/09/10 02:14:31;;;;;;;8.95;2.33;;;;;;;12.92;66.92;96735.41;5115565;28;20047;-66
2023/09/10 02:16:58;;;;;;;2.67;2.30;;;;;;;12.98;67.17;96732.47;5115299;28;20071;-69
2023/09/10 02:19:26;;;;;;;9.40;2.20;;;;;;;13.06;67.20;96731.31;5115006;28;20051;-67
2023/09/10 02:21:55;;;;;;;7.80;2.55;;;;;;;13.13;66.95;96732.72;5115094;28;20101;-72
2023/09/10 02:24:22;;;;;;;4.90;2.80;;;;;;;13.23;67.27;96733.16;5115109;27;20489;-69
2023/09/10 02:26:49;;;;;;;4.70;2.13;;;;;;;13.31;67.33;96731.03;5114970;28;20048;-68
2023/09/10 02:29:16;;;;;;;4.57;2.33;;;;;;;13.40;67.55;96725.34;5114790;28;20516;-63
2023/09/10 02:31:44;;;;;;;3.63;2.47;;;;;;;13.46;67.31;96729.44;5114793;28;20134;-63
2023/09/10 02:34:11;;;;;;;3.75;2.35;;;;;;;13.53;67.28;96727.44;5115075;28;20071;-71
2023/09/10 02:36:38;;;;;;;7.18;2.47;;;;;;;13.59;66.82;96729.78;5114810;28;20131;-72
2023/09/10 02:39:05;;;;;;;4.05;2.20;;;;;;;13.66;66.39;96730.31;5114866;28;20148;-70
2023/09/10 02:41:32;;;;;;;4.57;2.60;;;;;;;13.72;65.69;96721.28;5114838;28;20044;-67
2023/09/10 02:43:59;;;;;;;4.50;2.67;;;;;;;13.78;64.96;96728.88;5114749;28;20047;-67
2023/09/10 02:46:27;;;;;;;5.97;2.30;;;;;;;13.86;64.48;96728.53;5114680;28;20066;-61
2023/09/10 02:48:56;;;;;;;5.40;2.40;;;;;;;13.93;63.49;96722.03;5114873;28;20503;-64
2023/09/10 02:51:23;;;;;;;3.67;2.10;;;;;;;14.03;64.04;96718.03;5114476;28;20535;-69
2023/09/10 02:53:50;;;;;;;8.75;2.20;;;;;;;14.12;64.61;96726.41;5114532;28;20046;-63
2023/09/10 02:56:17;;;;;;;3.13;2.45;;;;;;;14.17;65.11;96727.03;5114445;28;20122;-65
2023/09/10 02:58:44;;;;;;;3.42;2.10;;;;;;;14.21;65.40;96723.31;5113838;28;20069;-65
2023/09/10 03:01:11;;;;;;;5.60;2.17;;;;;;;14.24;64.55;96714.44;5114375;28;20071;-62
2023/09/10 03:03:38;;;;;;;3.03;2.50;;;;;;;14.26;64.67;96729.19;5114356;28;20044;-63
2023/09/10 03:06:13;;;;;;;3.30;2.30;;;;;;;14.21;64.91;96728.56;5114284;28;20065;-69
2023/09/10 03:08:42;;;;;;;5.57;2.60;;;;;;;14.17;65.32;96729.66;5114060;28;20074;-65
2023/09/10 03:11:10;;;;;;;5.25;2.50;;;;;;;14.15;65.74;96729.72;5114132;28;20126;-61
2023/09/10 03:13:37;;;;;;;3.33;2.40;;;;;;;14.15;65.42;96729.72;5114217;28;20100;-64
2023/09/10 03:16:04;;;;;;;3.38;2.38;;;;;;;14.13;64.16;96731.59;5114205;28;20485;-65
2023/09/10 03:18:31;;;;;;;5.22;2.35;;;;;;;14.15;61.85;96732.34;5114060;28;20047;-69
2023/09/10 03:20:58;;;;;;;7.45;2.78;;;;;;;14.21;60.49;96731.19;5113992;28;20144;-70
2023/09/10 03:23:27;;;;;;;4.63;2.60;;;;;;;14.32;59.93;96727.16;5114120;28;20043;-68
2023/09/10 03:25:54;;;;;;;3.08;1.90;;;;;;;14.43;57.49;96730.13;5114075;28;20044;-70
2023/09/10 03:28:21;;;;;;;2.50;2.10;;;;;;;14.59;58.00;96735.47;5113844;28;20483;-71
2023/09/10 03:30:48;;;;;;;3.22;2.42;;;;;;;14.64;58.56;96735.22;5113868;28;20048;-68
2023/09/10 03:33:15;;;;;;;4.60;2.17;;;;;;;14.70;60.18;96736.69;5113678;28;20043;-68
2023/09/10 03:35:42;;;;;;;6.57;2.88;;;;;;;14.71;61.21;96730.47;5113818;28;20073;-63
2023/09/10 03:38:09;;;;;;;9.30;2.20;;;;;;;14.65;60.46;96736.91;5113770;28;20130;-65
2023/09/10 03:40:37;;;;;;;3.42;2.20;;;;;;;14.63;60.17;96738.81;5113776;28;20084;-64
2023/09/10 03:43:05;;;;;;;2.47;2.22;;;;;;;14.61;60.05;96738.00;5113770;28;20051;-69
2023/09/10 03:45:32;;;;;;;3.47;2.35;;;;;;;14.59;60.61;96745.13;5113724;28;20052;-65
2023/09/10 03:47:58;;;;;;;3.25;2.40;;;;;;;14.53;60.24;96752.44;5113732;28;20055;-68
2023/09/10 03:50:25;;;;;;;5.13;2.97;;;;;;;14.51;60.94;96754.28;5113617;28;20043;-68
2023/09/10 03:52:53;;;;;;;3.45;2.35;;;;;;;14.49;61.24;96753.50;5113652;28;20047;-70
2023/09/10 03:55:20;;;;;;;3.17;2.17;;;;;;;14.42;60.64;96753.91;5113567;28;20139;-69
2023/09/10 03:57:48;;;;;;;4.68;3.05;;;;;;;14.38;61.05;96751.41;5113397;28;20426;-64
2023/09/10 04:00:15;;;;;;;3.35;2.45;;;;;;;14.32;61.53;96753.47;5113355;28;20082;-67
2023/09/10 04:02:42;;;;;;;3.85;2.60;;;;;;;14.28;61.33;96758.06;5113636;28;20052;-66
2023/09/10 04:05:11;;;;;;;5.25;2.40;;;;;;;14.18;61.03;96755.00;5113648;28;20116;-65
2023/09/10 04:07:38;;;;;;;3.47;2.28;;;;;;;14.17;60.79;96760.38;5113366;28;20047;-68
2023/09/10 04:10:07;;;;;;;4.63;3.03;;;;;;;14.14;61.25;96756.97;5114576;28;20069;-66
2023/09/10 04:12:34;;;;;;;5.80;2.45;;;;;;;14.17;61.60;96758.59;5117667;28;20224;-69
2023/09/10 04:15:03;;;;;;;4.28;2.40;;;;;;;14.08;61.06;96759.03;5117559;28;20054;-66
2023/09/10 04:17:30;;;;;;;7.20;2.50;;;;;;;13.99;60.84;96770.84;5117497;28;20466;-67
2023/09/10 04:19:57;;;;;;;6.32;2.47;;;;;;;14.02;61.97;96758.41;5117407;28;20051;-70
2023/09/10 04:22:24;;;;;;;3.63;2.88;;;;;;;14.08;62.43;96761.66;5117506;28;20044;-73
2023/09/10 04:24:51;;;;;;;4.30;2.50;;;;;;;14.11;61.71;96769.41;5117415;28;20051;-68
2023/09/10 04:27:18;;;;;;;8.30;2.30;;;;;;;14.13;61.69;96759.66;5117648;28;20071;-65
2023/09/10 04:29:46;;;;;;;7.53;2.67;;;;;;;14.18;61.38;96768.16;5117322;28;20047;-69
2023/09/10 04:32:14;;;;;;;4.22;2.55;;;;;;;14.19;60.88;96759.38;5117417;28;20044;-66
2023/09/10 04:34:42;;;;;;;4.95;3.28;;;;;;;14.28;60.52;96774.72;5117223;28;20481;-63
2023/09/10 04:37:09;;;;;;;6.07;2.35;;;;;;;14.46;59.99;96765.97;5117180;28;20054;-67
2023/09/10 04:39:37;;;;;;;4.75;2.20;;;;;;;14.85;59.02;96769.31;5117030;28;20048;-67
2023/09/10 04:42:05;;;;;;;5.75;2.15;;;;;;;15.28;55.58;96772.31;5117038;28;20047;-66
2023/09/10 04:44:34;;;;;;;5.00;2.50;;;;;;;15.83;54.92;96777.28;5117277;28;20055;-69
2023/09/10 04:47:02;;;;;;;4.15;2.35;;;;;;;16.53;55.38;96778.66;5117040;28;20082;-69
2023/09/10 04:49:31;;;;;;;8.23;2.08;;;;;;;17.28;54.38;96784.00;5116909;27;20048;-68
2023/09/10 04:51:58;;;;;;;4.90;2.33;;;;;;;17.98;53.61;96781.47;5117003;28;20126;-64
2023/09/10 04:54:25;;;;;;;4.07;2.17;;;;;;;18.65;50.25;96782.44;5116968;28;20044;-68
2023/09/10 04:56:53;;;;;;;3.75;2.40;;;;;;;19.38;48.70;96782.81;5117122;28;20119;-67
2023/09/10 04:59:21;;;;;;;4.38;2.40;;;;;;;20.06;46.39;96782.50;5116851;28;20409;-61
2023/09/10 05:01:48;;;;;;;3.60;2.25;;;;;;;20.72;46.95;96788.31;5116661;28;20104;-65
2023/09/10 05:04:15;;;;;;;2.72;2.05;;;;;;;21.32;46.04;96785.59;5116835;28;20078;-61
2023/09/10 05:06:44;;;;;;;8.60;2.58;;;;;;;21.86;43.71;96792.09;5116799;28;20102;-62
2023/09/10 05:09:11;;;;;;;3.78;2.00;;;;;;;22.42;43.25;96788.44;5116404;28;20146;-66
2023/09/10 05:11:38;;;;;;;9.98;2.65;;;;;;;22.93;42.36;96785.19;5116505;28;20044;-68
2023/09/10 05:14:05;;;;;;;3.97;2.30;;;;;;;23.26;39.23;96779.81;5116569;28;20477;-69
2023/09/10 05:16:33;;;;;;;3.20;2.30;;;;;;;23.50;37.38;96784.00;5116501;28;20043;-64
2023/09/10 05:19:00;;;;;;;9.02;2.10;;;;;;;23.84;36.39;96778.38;5116521;28;20101;-67
2023/09/10 05:21:27;;;;;;;5.85;2.30;;;;;;;24.27;36.27;96784.38;5115807;28;20044;-68
2023/09/10 05:23:56;;;;;;;10.65;2.55;;;;;;;24.88;34.28;96789.63;5116424;27;20051;-64
2023/09/10 05:26:23;;;;;;;3.33;2.00;;;;;;;25.39;33.86;96784.00;5116423;28;20048;-65
2023/09/10 05:28:50;;;;;;;5.13;2.05;;;;;;;25.86;36.60;96782.28;5116707;28;20039;-68
2023/09/10 05:31:18;;;;;;;4.10;2.42;;;;;;;26.23;30.68;96777.81;5116261;28;20071;-65
2023/09/10 05:33:45;;;;;;;4.05;1.95;;;;;;;26.48;30.65;96778.09;5116055;28;20100;-68
2023/09/10 05:36:12;;;;;;;8.95;2.60;;;;;;;26.74;30.58;96783.53;5115901;27;20554;-69
2023/09/10 05:38:39;;;;;;;5.10;2.30;;;;;;;27.19;29.92;96785.38;5116060;28;20054;-67
2023/09/10 05:41:10;;;;;;;4.03;2.25;;;;;;;27.73;30.33;96792.41;5115806;27;20044;-65
2023/09/10 05:43:37;;;;;;;6.03;2.33;;;;;;;27.79;28.36;96796.31;5115928;28;20485;-69
2023/09/10 05:46:04;;;;;;;7.18;2.30;;;;;;;27.61;28.04;96799.88;5115909;28;20040;-66
2023/09/10 05:48:31;;;;;;;2.85;2.20;;;;;;;27.57;30.71;96798.53;5115922;28;20062;-63
2023/09/10 05:50:59;;;;;;;10.35;2.28;;;;;;;28.11;29.97;96789.38;5115681;28;20054;-67
2023/09/10 05:53:27;;;;;;;7.35;2.47;;;;;;;28.19;27.90;96793.91;5116000;28;20054;-67
2023/09/10 05:55:54;;;;;;;7.50;2.90;;;;;;;27.97;26.19;96799.75;5115648;27;20078;-67
2023/09/10 05:58:24;;;;;;;3.28;2.30;;;;;;;28.38;27.43;96800.88;5115567;28;20541;-65
2023/09/10 06:00:52;;;;;;;4.65;2.50;;;;;;;28.18;26.32;96801.16;5115516;28;20058;-66
2023/09/10 06:03:19;;;;;;;9.40;2.40;;;;;;;28.07;26.46;96806.81;5115571;27;20044;-65
2023/09/10 06:05:47;;;;;;;6.55;2.40;;;;;;;27.91;29.41;96815.66;5115467;28;20166;-65
2023/09/10 06:08:14;;;;;;;4.20;2.42;;;;;;;27.91;27.15;96811.13;5115288;28;20127;-65
2023/09/10 06:10:41;;;;;;;3.20;2.13;;;;;;;27.36;26.97;96819.38;5115443;28;20413;-65
2023/09/10 06:13:08;;;;;;;3.55;2.38;;;;;;;27.33;27.95;96821.56;5115397;28;20054;-65
2023/09/10 06:15:40;;;;;;;6.95;2.53;;;;;;;27.30;27.65;96814.63;5115445;28;20455;-70
2023/09/10 06:18:07;;;;;;;5.95;2.45;;;;;;;26.82;27.56;96819.47;5115265;28;20039;-67
2023/09/10 06:20:35;;;;;;;4.85;2.30;;;;;;;26.69;28.49;96818.00;5115234;28;20048;-70
2023/09/10 06:23:02;;;;;;;4.55;2.20;;;;;;;27.02;27.68;96827.38;5115248;28;20051;-66
2023/09/10 06:25:30;;;;;;;7.68;2.40;;;;;;;27.10;27.73;96822.06;5115459;28;20047;-69
2023/09/10 06:27:57;;;;;;;7.03;2.50;;;;;;;27.11;27.51;96826.41;5115133;28;20083;-64
2023/09/10 06:30:24;;;;;;;4.22;2.85;;;;;;;27.28;28.02;96829.22;5115086;28;20055;-64
2023/09/10 06:32:53;;;;;;;5.10;2.22;;;;;;;27.18;27.77;96834.72;5114284;28;20047;-67
2023/09/10 06:35:20;;;;;;;2.95;2.28;;;;;;;27.32;28.56;96833.28;5114995;28;20055;-66
2023/09/10 06:37:49;;;;;;;3.95;2.50;;;;;;;27.34;27.41;96833.97;5114921;28;20047;-69
2023/09/10 06:40:16;;;;;;;7.32;2.70;;;;;;;27.50;27.89;96838.59;5114668;28;20043;-64
2023/09/10 06:42:44;;;;;;;2.95;2.20;;;;;;;27.77;28.26;96833.22;5114797;28;20073;-65
2023/09/10 06:45:11;;;;;;;7.57;2.63;;;;;;;27.78;27.14;96829.56;5114671;28;20082;-68
2023/09/10 06:47:38;;;;;;;9.18;2.65;;;;;;;27.70;26.75;96833.88;5114789;28;20054;-65
2023/09/10 06:50:08;;;;;;;5.82;2.33;;;;;;;27.46;27.87;96832.72;5114591;28;20097;-68
2023/09/10 06:52:35;;;;;;;6.80;2.30;;;;;;;27.30;28.72;96830.75;5114478;28;20101;-66
2023/09/10 06:55:03;;;;;;;5.03;2.45;;;;;;;27.27;27.28;96836.44;5114652;28;20108;-67
2023/09/10 06:57:30;;;;;;;5.03;2.70;;;;;;;27.27;27.10;96841.78;5114579;28;20048;-66
2023/09/10 06:59:58;;;;;;;5.57;2.55;;;;;;;27.32;27.25;96833.28;5114573;28;20128;-67
2023/09/10 07:02:26;;;;;;;4.05;2.42;;;;;;;27.46;27.53;96819.28;5114643;28;20048;-64
2023/09/10 07:04:53;;;;;;;7.75;2.50;;;;;;;27.48;26.68;96832.56;5114356;28;20052;-65
2023/09/10 07:07:22;;;;;;;5.38;2.47;;;;;;;27.48;27.93;96825.31;5114122;28;20400;-68
2023/09/10 07:09:49;;;;;;;16.35;2.92;;;;;;;27.79;27.41;96832.09;5114240;28;20044;-65
2023/09/10 07:12:16;;;;;;;4.07;2.58;;;;;;;28.12;27.10;96836.75;5114290;28;20043;-68
2023/09/10 07:14:44;;;;;;;5.53;2.42;;;;;;;28.21;26.92;96832.25;5114263;28;20093;-66
2023/09/10 07:17:11;;;;;;;7.85;2.67;;;;;;;28.37;27.34;96839.53;5114188;28;20554;-68
2023/09/10 07:19:40;;;;;;;8.77;3.13;;;;;;;28.48;26.88;96836.53;5113954;28;20054;-67
2023/09/10 07:22:07;;;;;;;5.35;2.63;;;;;;;28.24;25.95;96829.22;5114074;28;20059;-67
2023/09/10 07:24:36;;;;;;;9.88;2.70;;;;;;;28.15;26.91;96825.66;5113991;28;20477;-66
2023/09/10 07:27:03;;;;;;;4.05;2.63;;;;;;;28.28;26.49;96827.88;5114112;28;20086;-70
2023/09/10 07:29:31;;;;;;;4.18;2.80;;;;;;;28.47;26.79;96826.78;5113952;28;20043;-68
2023/09/10 07:31:58;;;;;;;7.03;2.72;;;;;;;28.49;25.86;96830.16;5114192;28;20460;-65
2023/09/10 07:34:26;;;;;;;4.85;2.80;;;;;;;28.02;26.76;96828.78;5114166;28;20124;-66
2023/09/10 07:36:53;;;;;;;9.18;2.92;;;;;;;28.04;26.40;96824.13;5113854;28;20079;-65
2023/09/10 07:39:20;;;;;;;5.47;3.08;;;;;;;28.27;26.93;96823.53;5113807;28;20570;-67
2023/09/10 07:41:49;;;;;;;7.18;2.78;;;;;;;28.53;27.19;96829.81;5113608;28;20489;-65
2023/09/10 07:44:16;;;;;;;7.97;2.85;;;;;;;28.89;25.79;96824.13;5113648;28;20044;-68
2023/09/10 07:46:45;;;;;;;7.30;2.85;;;;;;;28.85;25.15;96823.63;5113616;28;20059;-65
2023/09/10 07:49:13;;;;;;;4.68;2.42;;;;;;;28.58;25.82;96828.31;5113525;28;20573;-65
2023/09/10 07:51:40;;;;;;;5.65;3.20;;;;;;;28.85;27.09;96826.31;5113683;28;20051;-64
2023/09/10 07:54:08;;;;;;;5.95;2.53;;;;;;;29.20;26.52;96828.03;5113632;28;20097;-66
2023/09/10 07:56:36;;;;;;;5.32;2.67;;;;;;;29.11;24.94;96833.41;5113663;28;20382;-69
2023/09/10 07:59:04;;;;;;;3.83;2.58;;;;;;;28.55;26.44;96819.72;5113616;28;20050;-69
2023/09/10 08:01:31;;;;;;;11.10;2.88;;;;;;;28.05;26.69;96827.66;5113523;28;20405;-69
2023/09/10 08:03:59;;;;;;;4.32;2.63;;;;;;;27.99;26.67;96824.59;5113793;28;20047;-68
2023/09/10 08:06:26;;;;;;;8.65;2.70;;;;;;;28.13;27.66;96812.41;5113595;28;20047;-66
2023/09/10 08:08:53;;;;;;;10.55;2.80;;;;;;;28.55;27.62;96819.72;5113347;28;20044;-66
2023/09/10 08:11:21;;;;;;;6.40;3.10;;;;;;;28.71;26.77;96819.75;5113385;28;20047;-71
2023/09/10 08:13:49;;;;;;;8.43;2.75;;;;;;;28.67;26.30;96815.72;5113395;28;20459;-67
2023/09/10 08:16:19;;;;;;;3.63;2.47;;;;;;;28.25;25.91;96820.16;5113355;28;20519;-68
2023/09/10 08:18:47;;;;;;;8.17;2.50;;;;;;;27.61;27.09;96819.53;5113559;28;20047;-65
2023/09/10 08:21:15;;;;;;;7.10;2.65;;;;;;;27.27;27.12;96823.00;5113292;28;20079;-67
2023/09/10 08:23:44;;;;;;;15.40;2.97;;;;;;;26.72;28.82;96823.06;5113246;28;20609;-64
2023/09/10 08:26:12;;;;;;;6.70;2.78;;;;;;;26.43;28.77;96818.75;5113340;28;20039;-65
2023/09/10 08:28:40;;;;;;;6.38;2.83;;;;;;;26.35;28.86;96824.91;5113431;28;20047;-65
2023/09/10 08:31:08;;;;;;;3.97;2.67;;;;;;;26.11;27.84;96815.56;5113517;28;20496;-65
2023/09/10 08:33:37;;;;;;;5.05;3.08;;;;;;;26.05;30.19;96815.31;5113203;28;20074;-64
2023/09/10 08:36:05;;;;;;;10.40;3.10;;;;;;;26.12;28.47;96811.03;5113273;28;20405;-70
2023/09/10 08:38:34;;;;;;;8.02;2.50;;;;;;;26.10;28.88;96821.91;5113292;28;20135;-67
2023/09/10 08:41:10;;;;;;;7.50;2.65;;;;;;;25.88;29.63;96828.50;5113105;28;20553;-66
2023/09/10 08:43:45;;;;;;;6.60;2.38;;;;;;;25.77;28.68;96812.63;5113115;28;20050;-65
2023/09/10 08:46:15;;;;;;;12.73;2.53;;;;;;;25.94;28.81;96814.53;5113382;28;20052;-67
2023/09/10 08:48:44;;;;;;;5.93;2.33;;;;;;;26.10;28.48;96821.06;5113322;28;20071;-67
2023/09/10 08:51:15;;;;;;;4.68;2.45;;;;;;;25.97;28.21;96824.94;5113234;28;20054;-67
2023/09/10 08:53:44;;;;;;;7.47;2.80;;;;;;;26.18;29.75;96815.78;5113326;28;20051;-67
2023/09/10 08:56:13;;;;;;;3.47;2.22;;;;;;;26.84;29.00;96817.44;5114114;28;20039;-66
2023/09/10 08:58:43;;;;;;;4.10;2.67;;;;;;;27.19;29.40;96810.41;5116971;27;20051;-64
2023/09/10 09:01:13;;;;;;;8.45;3.13;;;;;;;27.63;28.60;96798.72;5116773;27;20083;-64
2023/09/10 09:03:41;;;;;;;4.63;2.42;;;;;;;28.14;27.96;96805.16;5116845;28;20086;-67
2023/09/10 09:06:10;;;;;;;5.53;2.45;;;;;;;28.47;27.44;96809.81;5116660;28;20043;-68
2023/09/10 09:08:41;;;;;;;8.60;2.70;;;;;;;28.82;25.34;96813.19;5116616;28;20442;-63
2023/09/10 09:11:10;;;;;;;8.00;2.70;;;;;;;29.16;24.74;96810.53;5116483;28;20126;-68
2023/09/10 09:13:39;;;;;;;7.55;2.65;;;;;;;29.40;25.14;96815.03;5116554;28;20055;-65
2023/09/10 09:16:08;;;;;;;12.63;2.97;;;;;;;29.44;25.11;96815.53;5116406;28;20497;-69
2023/09/10 09:18:36;;;;;;;8.60;2.70;;;;;;;29.41;25.20;96814.03;5116455;28;20557;-67
2023/09/10 09:21:10;;;;;;;7.03;2.92;;;;;;;29.47;25.37;96815.19;5116377;28;20272;-64
2023/09/10 09:23:50;;;;;;;7.07;2.53;;;;;;;29.62;25.37;96820.75;5116261;28;20500;-65
2023/09/10 09:26:19;;;;;;;7.82;2.90;;;;;;;29.59;23.83;96818.38;5116312;28;20101;-68
2023/09/10 09:28:47;;;;;;;6.20;3.30;;;;;;;29.49;24.48;96811.31;5116284;28;20063;-68
2023/09/10 09:31:14;;;;;;;8.57;2.45;;;;;;;28.82;24.84;96812.34;5116355;28;20075;-64
2023/09/10 09:33:43;;;;;;;8.48;3.03;;;;;;;28.15;25.11;96804.16;5116388;28;20056;-66
2023/09/10 09:36:12;;;;;;;9.07;2.78;;;;;;;27.47;26.86;96806.69;5116119;28;20047;-62
2023/09/10 09:38:45;;;;;;;5.38;2.60;;;;;;;27.27;27.18;96800.72;5116392;28;20051;-68
2023/09/10 09:41:14;;;;;;;7.72;2.50;;;;;;;27.55;27.42;96795.16;5115931;28;20039;-67
2023/09/10 09:43:42;;;;;;;5.70;2.30;;;;;;;27.35;26.97;96801.59;5116289;28;20039;-67
2023/09/10 09:46:09;;;;;;;6.78;3.03;;;;;;;27.00;26.86;96798.84;5116095;28;20787;-68
2023/09/10 09:48:37;;;;;;;6.68;2.78;;;;;;;26.94;27.63;96798.59;5115780;28;20052;-66
2023/09/10 09:51:05;;;;;;;6.10;2.70;;;;;;;26.72;27.56;96796.25;5115745;28;20047;-69
2023/09/10 09:53:34;;;;;;;3.83;2.47;;;;;;;26.68;28.34;96792.19;5115738;28;20130;-66
2023/09/10 09:56:05;;;;;;;4.38;2.67;;;;;;;26.71;28.04;96785.66;5115655;28;20090;-64
2023/09/10 09:58:34;;;;;;;3.83;2.75;;;;;;;26.70;28.23;96790.19;5115798;28;20040;-64
2023/09/10 10:01:03;;;;;;;5.63;2.25;;;;;;;26.46;28.32;96788.13;5115744;28;20077;-69
2023/09/10 10:03:32;;;;;;;9.68;2.70;;;;;;;26.42;29.10;96782.22;5115629;28;20059;-63
2023/09/10 10:06:00;;;;;;;11.38;2.53;;;;;;;26.67;29.53;96782.44;5115704;28;20078;-65
2023/09/10 10:08:30;;;;;;;8.30;3.13;;;;;;;26.66;28.00;96780.75;5115280;28;20444;-66
2023/09/10 10:10:59;;;;;;;9.45;2.88;;;;;;;26.52;28.07;96782.16;5115793;28;20082;-65
2023/09/10 10:13:28;;;;;;;6.32;2.55;;;;;;;26.61;27.89;96781.22;5115271;28;20059;-67
2023/09/10 10:15:58;;;;;;;6.13;3.07;;;;;;;26.73;27.83;96771.09;5115455;28;20050;-65
2023/09/10 10:18:27;;;;;;;11.93;2.58;;;;;;;27.08;28.47;96779.28;5115198;28;20047;-67
2023/09/10 10:20:57;;;;;;;8.75;2.75;;;;;;;27.30;27.86;96768.19;5115314;28;20528;-68
2023/09/10 10:23:25;;;;;;;5.40;2.90;;;;;;;27.25;27.05;96771.34;5115174;28;20052;-65
2023/09/10 10:25:54;;;;;;;9.13;2.78;;;;;;;27.07;27.55;96766.00;5115209;28;20051;-68
2023/09/10 10:28:22;;;;;;;10.18;2.70;;;;;;;26.85;27.52;96770.88;5115276;28;20560;-67
2023/09/10 10:30:56;;;;;;;8.32;2.50;;;;;;;26.93;27.77;96770.91;5115260;28;20048;-64
2023/09/10 10:33:27;;;;;;;5.72;2.60;;;;;;;27.00;27.11;96769.31;5115074;28;20126;-65
2023/09/10 10:36:06;;;;;;;11.15;2.70;;;;;;;26.71;27.06;96769.56;5114917;28;20126;-66
2023/09/10 10:38:36;;;;;;;5.07;2.35;;;;;;;26.68;28.40;96772.56;5114791;28;20051;-68
2023/09/10 10:41:07;;;;;;;10.43;2.72;;;;;;;26.61;28.50;96767.00;5114868;28;20481;-69
2023/09/10 10:43:43;;;;;;;4.07;2.63;;;;;;;26.53;28.04;96769.59;5114651;28;20058;-63
2023/09/10 10:46:13;;;;;;;7.53;2.80;;;;;;;26.36;27.89;96759.56;5114692;28;20503;-66
2023/09/10 10:48:41;;;;;;;7.95;2.80;;;;;;;26.28;32.64;96764.81;5114631;28;20039;-65
2023/09/10 10:51:12;;;;;;;9.00;3.03;;;;;;;26.23;33.61;96762.59;5114604;28;20063;-61
2023/09/10 10:53:40;;;;;;;6.22;2.45;;;;;;;26.07;34.06;96765.09;5114596;28;20047;-67
2023/09/10 10:56:09;;;;;;;5.85;2.40;;;;;;;25.81;33.60;96755.09;5114461;28;20090;-66
2023/09/10 10:58:39;;;;;;;8.15;2.13;;;;;;;25.68;34.26;96768.84;5114435;28;20047;-67
2023/09/10 11:01:07;;;;;;;3.42;2.35;;;;;;;25.59;34.75;96765.19;5114373;28;20048;-64
2023/09/10 11:03:35;;;;;;;8.02;2.95;;;;;;;25.34;35.56;96764.84;5114437;28;20058;-65
2023/09/10 11:06:07;;;;;;;9.68;2.50;;;;;;;25.26;35.98;96757.56;5114395;28;20043;-69
2023/09/10 11:08:37;;;;;;;4.18;2.35;;;;;;;25.31;36.43;96749.94;5114163;28;20102;-64
2023/09/10 11:11:08;;;;;;;7.77;2.37;;;;;;;25.64;36.39;96752.22;5114226;28;20281;-65
2023/09/10 11:13:58;;;;;;;11.35;2.78;;;;;;;25.66;37.06;96738.69;5114193;28;20488;-65
2023/09/10 11:16:25;;;;;;;15.68;2.70;;;;;;;25.70;34.89;96743.59;5114358;28;20055;-65
2023/09/10 11:18:55;;;;;;;10.05;2.97;;;;;;;25.57;36.13;96749.28;5113584;28;20462;-67
2023/09/10 11:22:01;;;;;;;6.38;2.35;;;;;;;25.42;37.52;96751.59;5114275;28;20138;-68
2023/09/10 11:24:32;;;;;;;4.47;2.78;;;;;;;25.18;36.84;96744.91;5114275;28;20477;-65
2023/09/10 11:27:22;;;;;;;7.20;2.38;;;;;;;25.20;36.52;96737.56;5114010;28;20055;-66
2023/09/10 11:30:13;;;;;;;10.38;2.60;;;;;;;25.24;36.94;96738.97;5114220;28;20133;-65
2023/09/10 11:32:41;;;;;;;9.95;2.75;;;;;;;25.17;37.06;96735.22;5113901;28;20145;-67
2023/09/10 11:35:26;;;;;;;10.25;2.25;;;;;;;25.37;36.87;96727.09;5113993;28;20048;-64
2023/09/10 11:37:56;;;;;;;5.22;2.20;;;;;;;25.64;37.18;96728.13;5113880;28;20056;-63